createdAt,value
2022-10-20T00:03:05.124Z,12.58
2022-10-20T00:08:07.763Z,12.21
2022-10-20T00:13:20.107Z,12.07
2022-10-20T00:18:20.847Z,12.22
2022-10-20T00:23:22.778Z,12.22
2022-10-20T00:28:23.080Z,12.20
2022-10-20T00:33:30.290Z,12.00
2022-10-20T00:38:41.561Z,11.79
2022-10-20T00:43:53.025Z,11.85
2022-10-20T00:50:03.416Z,12.05
2022-10-20T00:55:29.816Z,11.65
2022-10-20T01:00:39.076Z,11.79
2022-10-20T01:05:51.364Z,11.83
2022-10-20T01:11:28.975Z,11.62
2022-10-20T01:17:09.898Z,11.82
2022-10-20T01:22:33.104Z,11.67
2022-10-20T01:28:03.587Z,11.49
2022-10-20T01:33:34.011Z,11.39
2022-10-20T01:38:44.995Z,11.48
2022-10-20T01:43:48.631Z,11.78
2022-10-20T01:48:56.826Z,11.82
2022-10-20T01:53:57.257Z,11.63
2022-10-20T01:59:17.984Z,11.44
2022-10-20T02:04:19.920Z,11.47
2022-10-20T02:09:31.351Z,11.35
2022-10-20T02:14:33.338Z,11.07
2022-10-20T02:19:41.100Z,10.92
2022-10-20T02:24:45.313Z,10.82
2022-10-20T02:30:11.053Z,10.74
2022-10-20T02:35:15.054Z,10.55
2022-10-20T02:40:14.761Z,10.66
2022-10-20T02:45:14.226Z,10.27
2022-10-20T02:50:19.636Z,10.53
2022-10-20T03:00:23.676Z,10.48
2022-10-20T03:05:23.726Z,10.38
2022-10-20T03:10:22.199Z,10.64
2022-10-20T03:15:21.479Z,10.18
2022-10-20T03:20:23.113Z,10.36
2022-10-20T03:25:23.761Z,10.17
2022-10-20T03:30:23.535Z,10.14
2022-10-20T03:35:35.391Z,10.30
2022-10-20T03:40:34.160Z,10.33
2022-10-20T03:45:37.518Z,10.24
2022-10-20T03:50:39.907Z,9.94
2022-10-20T03:55:40.028Z,10.03
2022-10-20T04:00:37.466Z,9.60
2022-10-20T04:05:35.541Z,9.65
2022-10-20T04:10:36.161Z,10.12
2022-10-20T04:15:33.495Z,10.28
2022-10-20T04:20:33.675Z,10.43
2022-10-20T04:25:35.244Z,10.43
2022-10-20T04:30:35.190Z,10.05
2022-10-20T04:35:36.482Z,9.98
2022-10-20T04:40:38.026Z,9.99
2022-10-20T04:45:39.347Z,9.67
2022-10-20T04:50:39.757Z,10.12
2022-10-20T04:55:40.325Z,10.02
2022-10-20T05:00:38.649Z,9.92
2022-10-20T05:11:49.345Z,10.31
2022-10-20T05:16:46.922Z,10.17
2022-10-20T05:21:51.042Z,10.14
2022-10-20T05:26:50.675Z,10.22
2022-10-20T05:31:58.699Z,10.31
2022-10-20T05:37:01.801Z,10.07
2022-10-20T05:42:12.714Z,10.22
2022-10-20T05:47:41.864Z,10.59
2022-10-20T05:52:47.294Z,10.49
2022-10-20T05:58:24.502Z,10.30
2022-10-20T06:03:37.581Z,9.91
2022-10-20T06:08:36.648Z,9.89
2022-10-20T06:13:51.683Z,10.07
2022-10-20T06:18:58.355Z,10.18
2022-10-20T06:24:00.051Z,9.90
2022-10-20T06:29:03.938Z,10.00
2022-10-20T06:34:08.910Z,10.61
2022-10-20T06:39:11.882Z,10.89
2022-10-20T06:44:11.045Z,10.94
2022-10-20T06:49:16.886Z,11.08
2022-10-20T06:54:15.414Z,11.16
2022-10-20T06:59:17.630Z,11.48
2022-10-20T07:04:18.005Z,11.71
2022-10-20T07:16:17.887Z,13.18
2022-10-20T07:21:34.527Z,13.76
2022-10-20T07:26:38.394Z,13.81
2022-10-20T07:31:51.783Z,14.43
2022-10-20T07:36:51.662Z,14.56
2022-10-20T07:41:52.920Z,14.50
2022-10-20T07:46:56.032Z,14.19
2022-10-20T07:51:55.190Z,13.97
2022-10-20T07:56:53.923Z,14.07
2022-10-20T08:01:56.267Z,14.29
2022-10-20T08:06:56.828Z,14.16
2022-10-20T08:11:56.374Z,14.25
2022-10-20T08:16:59.792Z,14.60
2022-10-20T08:21:59.025Z,14.58
2022-10-20T08:26:57.454Z,14.69
2022-10-20T08:31:58.549Z,14.71
2022-10-20T08:37:01.226Z,14.91
2022-10-20T08:42:08.689Z,15.03
2022-10-20T08:47:29.353Z,15.22
2022-10-20T08:52:33.023Z,15.15
2022-10-20T08:57:36.488Z,15.29
2022-10-20T09:02:36.178Z,15.10
2022-10-20T09:07:38.551Z,14.99
2022-10-20T09:12:40.896Z,15.45
2022-10-20T09:17:44.978Z,15.76
2022-10-20T09:22:47.484Z,15.71
2022-10-20T09:27:49.607Z,15.65
2022-10-20T09:32:49.178Z,15.68
2022-10-20T09:37:59.277Z,15.82
2022-10-20T09:43:16.222Z,15.88
2022-10-20T09:48:39.529Z,15.69
2022-10-20T09:53:51.587Z,15.79
2022-10-20T09:58:49.933Z,15.97
2022-10-20T10:03:59.818Z,16.13
2022-10-20T10:09:03.116Z,16.41
2022-10-20T10:14:04.184Z,16.27
2022-10-20T10:19:05.367Z,16.54
2022-10-20T10:24:04.747Z,16.51
2022-10-20T10:29:04.081Z,16.78
2022-10-20T10:34:29.233Z,16.54
2022-10-20T10:39:34.205Z,16.52
2022-10-20T10:44:35.343Z,16.80
2022-10-20T10:49:47.283Z,16.41
2022-10-20T10:55:11.697Z,16.21
2022-10-20T11:00:43.981Z,16.43
2022-10-20T11:06:04.559Z,16.90
2022-10-20T11:11:16.376Z,16.92
2022-10-20T11:16:46.909Z,16.90
2022-10-20T11:22:04.218Z,17.03
2022-10-20T11:27:08.383Z,17.26
2022-10-20T11:32:19.793Z,17.12
2022-10-20T11:37:29.002Z,17.32
2022-10-20T11:43:02.707Z,17.36
2022-10-20T11:48:48.739Z,17.27
2022-10-20T11:53:54.887Z,17.16
2022-10-20T11:59:14.615Z,16.97
2022-10-20T12:04:27.796Z,17.17
2022-10-20T12:09:46.174Z,17.34
2022-10-20T12:14:52.758Z,17.23
2022-10-20T12:19:55.208Z,17.17
2022-10-20T12:24:57.334Z,17.48
2022-10-20T12:30:01.868Z,17.60
2022-10-20T12:35:22.226Z,17.30
2022-10-20T12:40:31.269Z,17.47
2022-10-20T12:45:42.874Z,17.13
2022-10-20T12:50:44.941Z,17.20
2022-10-20T12:56:22.205Z,17.26
2022-10-20T13:01:31.052Z,17.06
2022-10-20T13:06:31.542Z,17.46
2022-10-20T13:11:39.290Z,17.53
2022-10-20T13:16:37.633Z,17.18
2022-10-20T13:21:49.441Z,17.43
2022-10-20T13:27:06.467Z,17.17
2022-10-20T13:32:18.251Z,17.41
2022-10-20T13:37:29.180Z,17.25
2022-10-20T13:42:55.043Z,17.13
2022-10-20T13:48:31.490Z,17.26
2022-10-20T13:53:40.609Z,16.88
2022-10-20T13:59:05.487Z,17.14
2022-10-20T14:04:24.250Z,16.91
2022-10-20T14:09:26.510Z,16.93
2022-10-20T14:14:26.599Z,16.83
2022-10-20T14:19:29.396Z,16.81
2022-10-20T14:24:38.226Z,16.62
2022-10-20T14:29:41.603Z,16.47
2022-10-20T14:35:00.597Z,16.35
2022-10-20T14:40:08.184Z,16.39
2022-10-20T14:45:20.060Z,16.30
2022-10-20T14:50:28.216Z,16.15
2022-10-20T14:55:37.295Z,16.08
2022-10-20T15:00:44.309Z,16.15
2022-10-20T15:05:48.588Z,16.30
2022-10-20T15:10:53.901Z,16.10
2022-10-20T15:15:55.886Z,16.02
2022-10-20T15:20:58.206Z,15.85
2022-10-20T15:26:01.577Z,15.83
2022-10-20T15:31:02.116Z,15.57
2022-10-20T15:36:02.011Z,15.50
2022-10-20T15:41:13.523Z,15.47
2022-10-20T15:46:16.011Z,15.31
2022-10-20T15:51:31.724Z,15.15
2022-10-20T15:56:35.524Z,15.13
2022-10-20T16:02:04.523Z,14.87
2022-10-20T16:13:23.680Z,14.66
2022-10-20T16:18:30.999Z,14.50
2022-10-20T16:23:34.887Z,14.36
2022-10-20T16:28:34.615Z,14.34
2022-10-20T16:33:34.636Z,14.03
2022-10-20T16:38:43.740Z,14.10
2022-10-20T16:43:51.753Z,14.08
2022-10-20T16:49:04.022Z,13.95
2022-10-20T16:54:08.189Z,13.83
2022-10-20T17:04:51.048Z,13.62
2022-10-20T17:09:54.292Z,13.44
2022-10-20T17:14:58.010Z,13.60
2022-10-20T17:19:59.823Z,13.41
2022-10-20T17:24:59.581Z,13.15
2022-10-20T17:30:26.445Z,12.92
2022-10-20T17:35:44.042Z,13.03
2022-10-20T17:40:53.917Z,12.95
2022-10-20T17:46:01.288Z,12.70
2022-10-20T17:51:02.224Z,12.98
2022-10-20T17:56:05.094Z,12.50
2022-10-20T18:01:17.412Z,12.75
2022-10-20T18:06:20.613Z,12.61
2022-10-20T18:11:22.332Z,12.71
2022-10-20T18:16:23.542Z,12.43
2022-10-20T18:21:22.358Z,12.54
2022-10-20T18:26:36.256Z,12.75
2022-10-20T18:31:39.601Z,12.37
2022-10-20T18:36:41.976Z,12.27
2022-10-20T18:41:45.633Z,12.30
2022-10-20T18:46:46.857Z,12.73
2022-10-20T18:51:47.756Z,12.44
2022-10-20T18:56:46.371Z,12.49
2022-10-20T19:01:51.696Z,12.63
2022-10-20T19:06:54.115Z,12.86
2022-10-20T19:11:52.258Z,12.60
2022-10-20T19:16:50.418Z,12.66
2022-10-20T19:22:25.663Z,12.69
2022-10-20T19:27:30.481Z,12.59
2022-10-20T19:32:39.006Z,12.53
2022-10-20T19:37:45.249Z,12.59
2022-10-20T19:42:45.054Z,12.63
2022-10-20T19:53:10.486Z,12.46
2022-10-20T19:58:11.933Z,12.31
2022-10-20T20:03:11.607Z,11.97
2022-10-20T20:08:12.484Z,11.73
2022-10-20T20:13:12.534Z,11.49
2022-10-20T20:18:16.111Z,11.10
2022-10-20T20:23:16.236Z,11.34
2022-10-20T20:28:16.902Z,11.21
2022-10-20T20:33:20.124Z,11.55
2022-10-20T20:38:20.865Z,11.40
2022-10-20T20:43:21.569Z,11.42
2022-10-20T20:48:23.878Z,11.97
2022-10-20T20:53:23.230Z,12.00
2022-10-20T20:58:34.694Z,12.09
2022-10-20T21:03:37.216Z,11.58
2022-10-20T21:08:37.894Z,11.39
2022-10-20T21:13:39.145Z,11.30
2022-10-20T21:18:41.815Z,11.55
2022-10-20T21:23:40.259Z,11.19
2022-10-20T21:28:43.083Z,11.29
2022-10-20T21:33:43.281Z,11.09
2022-10-20T21:38:42.485Z,11.02
2022-10-20T21:43:43.191Z,11.25
2022-10-20T21:49:08.439Z,11.38
2022-10-20T21:54:14.704Z,11.45
2022-10-20T21:59:19.170Z,11.47
2022-10-20T22:04:22.032Z,11.07
2022-10-20T22:09:21.746Z,11.24
2022-10-20T22:14:24.258Z,11.32
2022-10-20T22:19:25.188Z,11.30
2022-10-20T22:24:52.136Z,11.34
2022-10-20T22:29:53.049Z,10.98
2022-10-20T22:34:56.333Z,10.77
2022-10-20T22:39:57.737Z,10.77
2022-10-20T22:44:58.295Z,10.96
2022-10-20T22:50:00.197Z,10.93
2022-10-20T22:55:01.458Z,10.90
2022-10-20T23:00:17.242Z,10.78
2022-10-20T23:05:24.306Z,11.04
2022-10-20T23:10:25.259Z,10.96
2022-10-20T23:15:27.481Z,11.11
2022-10-20T23:20:24.998Z,10.82
2022-10-20T23:25:25.021Z,11.08
2022-10-20T23:30:29.076Z,10.91
2022-10-20T23:35:29.967Z,10.75
2022-10-20T23:45:45.408Z,10.54
2022-10-20T23:50:53.338Z,10.34
2022-10-20T23:56:18.708Z,10.49
